Gonggar, China
Current Conditions -  °F | °C
As of 2:50 PM on Saturday 01 Nov 2014 (Local Time) from VQPR Reporting Station
Few Clouds Few Clouds  
Wind Chill: 72°   Ceiling: Unl
Heat Index: 72°   Visibility: 6mi
Dew Point: 36°   Wind: 5mph
Humidity: 27%   Direction: 150°SSE
Pressure: 30.12"   Gusts: NA
Location:  29.25°N, 90.83°E
Report Text: VQPR 010650Z 15004KT 9999 FEW060 22/02 Q1020 NOSIG
Loading
Personal Weather Stations






























Interactive Weather Map
Tropical Storm Tracking
New forecast layout! Learn more

10-Day Weather Forecast

Advertisements
Track Severe Weather on mobile